Terminal Aerodrome Forecast
Issued by NWS

Home | Current Version | Previous Version | Text Only | Print | Product List | Glossary On
Versions: 1 2 3 4 5 6 7 8 9 10 11 12
000
FTUS43 KBIS 270523
TAFDIK
TAF
KDIK 270523Z 2706/2806 16018G26KT P6SM SCT130 BKN250 WS020/18045KT
     FM271000 16016G25KT P6SM SCT130 BKN200
     FM271900 19012G20KT P6SM FEW100 SCT250
     FM272100 22012KT P6SM VCSH BKN100
     FM280000 31013KT P6SM SCT050 BKN100=

USA.gov is the U.S. government's official web portal to all federal, state and local government web resources and services.